Data for 05/08/2015

Time Sea-Level Adjusted Pressure Absolute Pressure Temperature Relative Humidity Dew Point   
(mb) (inHg) (mb) (inHg) (C) (F) (%) (C) (F)
00:05 1019 30.09 848 25.04 3 37.4 75 -0.9 30.3
00:10 1019 30.09 848 25.04 3 37.4 75 -1 30.3
00:15 1019 30.09 848 25.04 3 37.4 75 -0.9 30.3
00:20 1019 30.09 848 25.04 3 37.4 75 -1 30.2
00:25 1019 30.09 848 25.04 3 37.4 75 -1 30.2
00:30 1019 30.09 848 25.04 3 37.4 76 -0.9 30.4
00:35 1019 30.09 848 25.04 3 37.3 76 -0.9 30.4
00:40 1018 30.06 848 25.04 2.9 37.3 76 -0.9 30.4
00:45 1018 30.06 848 25.04 2.9 37.3 76 -0.9 30.4
00:50 1018 30.06 848 25.04 2.9 37.2 76 -0.9 30.3
00:55 1018 30.06 848 25.04 2.9 37.2 76 -0.9 30.4
01:00 1018 30.06 848 25.04 2.9 37.2 76 -0.9 30.4
01:05 1018 30.06 848 25.04 2.8 37.1 77 -0.8 30.5
01:10 1018 30.06 848 25.04 2.8 37.1 77 -0.9 30.4
01:15 1018 30.06 848 25.04 2.8 37.1 76 -1 30.3
01:20 1018 30.06 848 25.04 2.8 37.1 76 -0.9 30.3
01:25 1018 30.06 848 25.04 2.8 37 76 -1 30.1
01:30 1018 30.06 848 25.04 2.9 37.2 76 -1 30.2
01:35 1018 30.06 848 25.04 2.9 37.2 75 -1.1 29.9
01:40 1018 30.06 848 25.04 2.9 37.2 75 -1.1 30
01:45 1018 30.06 848 25.04 2.9 37.2 75 -1.1 30.1
01:50 1018 30.06 847 25.01 2.9 37.2 75 -1.1 30
01:55 1018 30.06 847 25.01 2.8 37.1 75 -1.1 29.9
02:00 1018 30.06 847 25.01 2.8 37.1 75 -1.1 30
02:05 1018 30.06 847 25.01 2.8 37 75 -1.1 30
02:10 1018 30.06 847 25.01 2.8 37 75 -1.2 29.9
02:15 1018 30.06 847 25.01 2.8 37.1 75 -1.1 30
02:20 1018 30.06 847 25.01 2.8 37.1 75 -1.2 29.9
02:25 1018 30.06 847 25.01 2.8 37.1 75 -1.2 29.8
02:30 1018 30.06 847 25.01 2.8 37.1 74 -1.3 29.7
02:35 1018 30.06 847 25.01 2.9 37.2 74 -1.2 29.8
02:40 1018 30.06 847 25.01 2.9 37.2 74 -1.3 29.6
02:45 1018 30.06 847 25.01 2.9 37.2 74 -1.3 29.6
02:50 1018 30.06 847 25.01 2.9 37.2 74 -1.3 29.6
02:55 1018 30.06 847 25.01 2.9 37.2 73 -1.4 29.5
03:00 1018 30.06 847 25.01 2.9 37.2 74 -1.4 29.6
03:05 1018 30.06 847 25.01 2.9 37.2 73 -1.4 29.5
03:10 1018 30.06 847 25.01 2.9 37.2 74 -1.4 29.5
03:15 1018 30.06 847 25.01 2.9 37.2 73 -1.4 29.5
03:20 1018 30.06 847 25.01 2.9 37.2 73 -1.4 29.5
03:25 1018 30.06 847 25.01 2.9 37.3 73 -1.5 29.4
03:30 1018 30.06 847 25.01 2.9 37.3 73 -1.4 29.4
03:35 1018 30.06 847 25.01 2.9 37.3 73 -1.5 29.3
03:40 1018 30.06 847 25.01 2.9 37.2 72 -1.6 29.1
03:45 1018 30.06 847 25.01 2.9 37.2 72 -1.6 29
03:50 1018 30.06 847 25.01 2.9 37.2 72 -1.6 29.1
03:55 1018 30.06 847 25.01 2.9 37.2 72 -1.7 29
04:00 1018 30.06 847 25.01 2.9 37.2 72 -1.7 29
04:05 1018 30.06 847 25.01 2.9 37.2 72 -1.7 29
04:10 1018 30.06 847 25.01 2.9 37.2 72 -1.7 28.9
04:15 1018 30.06 847 25.01 2.9 37.2 72 -1.7 28.9
04:20 1018 30.06 847 25.01 2.9 37.2 72 -1.7 28.9
04:25 1018 30.06 847 25.01 2.9 37.2 71 -1.8 28.7
04:30 1018 30.06 847 25.01 2.9 37.3 71 -1.8 28.7
04:35 1018 30.06 847 25.01 2.9 37.3 71 -1.8 28.7
04:40 1018 30.06 847 25.01 2.9 37.2 71 -1.9 28.5
04:45 1018 30.06 847 25.01 2.9 37.2 71 -1.8 28.7
04:50 1018 30.06 847 25.01 2.9 37.2 71 -1.8 28.7
04:55 1018 30.06 847 25.01 2.8 37.1 73 -1.6 29.1
05:00 1018 30.06 847 25.01 2.8 37 73 -1.6 29.1
05:05 1018 30.06 847 25.01 2.8 37 73 -1.6 29.1
05:10 1018 30.06 847 25.01 2.8 37 73 -1.6 29.2
05:15 1018 30.06 847 25.01 2.8 37.1 73 -1.6 29.2
05:20 1018 30.06 847 25.01 2.8 37.1 73 -1.6 29.1
05:25 1018 30.06 847 25.01 2.8 37.1 73 -1.6 29.2
05:30 1018 30.06 847 25.01 2.8 37 73 -1.6 29.1
05:35 1018 30.06 847 25.01 2.8 37 72 -1.7 28.9
05:40 1018 30.06 847 25.01 2.8 37 72 -1.7 28.9
05:45 1018 30.06 847 25.01 2.8 37.1 72 -1.7 28.9
05:50 1018 30.06 847 25.01 2.8 37.1 72 -1.8 28.8
05:55 1018 30.06 847 25.01 2.9 37.2 71 -1.9 28.6
06:00 1018 30.06 847 25.01 2.9 37.3 70 -1.9 28.6
06:05 1018 30.06 847 25.01 3 37.3 70 -1.9 28.5
06:10 1018 30.06 847 25.01 3 37.3 70 -1.9 28.5
06:15 1018 30.06 847 25.01 2.9 37.3 70 -1.9 28.5
06:20 1018 30.06 847 25.01 3 37.3 70 -1.9 28.6
06:25 1018 30.06 847 25.01 3 37.4 70 -1.9 28.6
06:30 1018 30.06 847 25.01 3 37.5 70 -1.9 28.7
06:35 1018 30.06 847 25.01 3 37.5 69 -2.1 28.3
06:40 1018 30.06 847 25.01 3.1 37.6 69 -2 28.3
06:45 1018 30.06 847 25.01 3.2 37.7 68 -2.1 28.1
06:50 1018 30.06 847 25.01 3.2 37.8 68 -2.2 28
06:55 1018 30.06 847 25.01 3.3 37.9 67 -2.3 27.8
07:00 1018 30.06 847 25.01 3.3 38 67 -2.2 28
07:05 1018 30.06 847 25.01 3.4 38.1 67 -2.3 27.9
07:10 1018 30.06 847 25.01 3.4 38.2 66 -2.2 28
07:15 1018 30.06 847 25.01 3.5 38.3 67 -2.1 28.2
07:20 1018 30.06 847 25.01 3.4 38.2 67 -2.2 28
07:25 1018 30.06 847 25.01 3.5 38.2 66 -2.4 27.8
07:30 1018 30.06 848 25.04 3.5 38.3 66 -2.2 28.1
07:35 1018 30.06 848 25.04 3.5 38.3 65 -2.5 27.5
07:40 1018 30.06 848 25.04 3.6 38.5 64 -2.5 27.5
07:45 1018 30.06 848 25.04 3.6 38.4 67 -2.1 28.2
07:50 1018 30.06 848 25.04 3.5 38.4 64 -2.6 27.4
07:55 1018 30.06 848 25.04 3.7 38.6 64 -2.6 27.3
08:00 1018 30.06 848 25.04 3.8 38.8 63 -2.6 27.3
08:05 1018 30.06 848 25.04 3.9 39.1 61 -2.8 26.9
08:10 1018 30.06 848 25.04 3.9 39 61 -3 26.6
08:15 1018 30.06 848 25.04 3.9 39 61 -3 26.7
08:20 1018 30.06 848 25.04 4 39.2 61 -2.9 26.8
08:25 1018 30.06 848 25.04 4.1 39.3 60 -3 26.6
08:30 1018 30.06 848 25.04 4 39.1 60 -3 26.6
08:35 1018 30.06 848 25.04 4.1 39.3 61 -2.8 26.9
08:40 1018 30.06 848 25.04 4.2 39.5 62 -2.6 27.4
08:45 1018 30.06 848 25.04 4 39.3 62 -2.5 27.5
08:50 1018 30.06 848 25.04 4.1 39.4 62 -2.5 27.6
08:55 1018 30.06 848 25.04 4 39.2 63 -2.5 27.5
09:00 1018 30.06 848 25.04 4.1 39.3 64 -2.1 28.1
09:05 1018 30.06 848 25.04 4.3 39.7 63 -2.2 28.1
09:10 1018 30.06 848 25.04 4.3 39.7 63 -2.1 28.3
09:15 1018 30.06 848 25.04 4.3 39.8 63 -2 28.4
09:20 1018 30.06 848 25.04 4.3 39.8 63 -2.2 28.1
09:25 1018 30.06 848 25.04 4.5 40 63 -1.9 28.6
09:30 1018 30.06 848 25.04 4.7 40.5 63 -1.8 28.7
09:35 1018 30.06 848 25.04 4.6 40.3 63 -1.9 28.6
09:40 1018 30.06 848 25.04 5 40.9 63 -1.4 29.4
09:45 1018 30.06 848 25.04 5 41 62 -1.7 28.9
09:50 1018 30.06 848 25.04 5.1 41.1 61 -1.9 28.5
09:55 1018 30.06 848 25.04 5.2 41.4 61 -1.6 29.2
10:00 1018 30.06 848 25.04 5.2 41.3 61 -1.6 29.1
10:05 1018 30.06 848 25.04 4.8 40.6 63 -1.7 29
10:10 1018 30.06 848 25.04 5.2 41.4 61 -1.5 29.2
10:15 1019 30.09 848 25.04 5.4 41.7 61 -1.5 29.3
10:20 1019 30.09 848 25.04 5.3 41.5 63 -1.3 29.7
10:25 1019 30.09 848 25.04 5 41 62 -1.6 29.2
10:30 1019 30.09 848 25.04 4.8 40.6 64 -1.4 29.5
10:35 1019 30.09 848 25.04 4.7 40.4 64 -1.5 29.3
10:40 1019 30.09 848 25.04 4.7 40.4 65 -1.3 29.7
10:45 1019 30.09 848 25.04 4.6 40.2 65 -1.4 29.4
10:50 1019 30.09 848 25.04 4.9 40.7 64 -1.3 29.7
10:55 1019 30.09 848 25.04 4.9 40.8 62 -1.7 28.9
11:00 1019 30.09 848 25.04 5 41 62 -1.6 29.1
11:05 1019 30.09 848 25.04 5 41 62 -1.6 29.2
11:10 1019 30.09 848 25.04 5 41 64 -1.3 29.7
11:15 1019 30.09 848 25.04 4.9 40.8 64 -1.2 29.8
11:20 1019 30.09 848 25.04 4.7 40.5 65 -1.3 29.6
11:25 1019 30.09 848 25.04 5 41 64 -1.3 29.6
11:30 1019 30.09 848 25.04 5.1 41.2 65 -1 30.3
11:35 1019 30.09 848 25.04 5.1 41.1 65 -1 30.2
11:40 1019 30.09 848 25.04 5.1 41.2 65 -0.9 30.4
11:45 1019 30.09 848 25.04 4.8 40.6 67 -0.9 30.4
11:50 1019 30.09 848 25.04 4.7 40.4 67 -0.9 30.4
11:55 1019 30.09 848 25.04 4.7 40.5 67 -0.9 30.3
12:00 1019 30.09 848 25.04 5.1 41.2 65 -0.9 30.4
12:05 1019 30.09 848 25.04 5.1 41.1 66 -0.7 30.8
12:10 1019 30.09 848 25.04 5 40.9 64 -1.2 29.8
12:15 1019 30.09 848 25.04 4.9 40.8 65 -1.1 29.9
12:20 1019 30.09 848 25.04 5.4 41.7 64 -0.9 30.4
12:25 1018 30.06 848 25.04 5.5 41.9 64 -0.8 30.5
12:30 1019 30.09 848 25.04 5.5 42 64 -0.8 30.5
12:35 1019 30.09 848 25.04 5.4 41.7 66 -0.4 31.3
12:40 1019 30.09 848 25.04 5.1 41.2 67 -0.5 31
12:45 1019 30.09 848 25.04 5.5 41.8 65 -0.5 31
12:50 1019 30.09 848 25.04 5.2 41.3 66 -0.6 30.8
12:55 1019 30.09 848 25.04 5.1 41.2 65 -0.9 30.4
13:00 1019 30.09 848 25.04 5.4 41.8 66 -0.4 31.2
13:05 1019 30.09 848 25.04 5.4 41.8 64 -0.9 30.4
13:10 1019 30.09 848 25.04 5.4 41.7 65 -0.6 30.8
13:15 1019 30.09 848 25.04 5.3 41.5 66 -0.5 31.1
13:20 1019 30.09 848 25.04 5.3 41.6 66 -0.5 31
13:25 1019 30.09 848 25.04 5.4 41.8 64 -0.8 30.6
13:30 1019 30.09 848 25.04 5.6 42 66 -0.3 31.5
13:35 1019 30.09 848 25.04 5.1 41.1 70 0 32.1
13:40 1019 30.09 848 25.04 4.8 40.7 71 -0.1 31.9
13:45 1019 30.09 848 25.04 4.8 40.6 71 -0.1 31.8
13:50 1019 30.09 848 25.04 4.7 40.5 74 0.4 32.7
13:55 1019 30.09 848 25.04 4.6 40.3 74 0.5 32.8
14:00 1019 30.09 848 25.04 4.7 40.4 74 0.4 32.8
14:05 1019 30.09 848 25.04 4.7 40.4 74 0.5 32.8
14:10 1019 30.09 848 25.04 4.8 40.6 72 0.1 32.2
14:15 1019 30.09 848 25.04 4.8 40.6 72 0.1 32.2
14:20 1019 30.09 848 25.04 4.7 40.5 72 0.1 32.2
14:25 1019 30.09 848 25.04 4.7 40.5 73 0.3 32.5
14:30 1019 30.09 848 25.04 4.7 40.4 73 0.2 32.4
14:35 1019 30.09 848 25.04 4.6 40.2 73 0.2 32.3
14:40 1019 30.09 848 25.04 4.6 40.3 73 0.2 32.3
14:45 1019 30.09 848 25.04 4.9 40.9 73 0.5 32.9
14:50 1019 30.09 848 25.04 5.2 41.3 71 0.3 32.5
14:55 1019 30.09 848 25.04 5.3 41.5 72 0.6 33
15:00 1019 30.09 848 25.04 5.2 41.4 71 0.4 32.7
15:05 1019 30.09 848 25.04 4.9 40.8 72 0.4 32.6
15:10 1019 30.09 848 25.04 4.8 40.6 73 0.4 32.7
15:15 1019 30.09 848 25.04 4.9 40.7 72 0.3 32.6
15:20 1019 30.09 848 25.04 4.7 40.4 73 0.2 32.4
15:25 1019 30.09 848 25.04 4.5 40.1 74 0.2 32.4
15:30 1019 30.09 848 25.04 4.6 40.2 74 0.3 32.6
15:35 1019 30.09 848 25.04 4.6 40.3 73 0.2 32.4
15:40 1019 30.09 848 25.04 4.6 40.3 73 0.1 32.2
15:45 1019 30.09 848 25.04 4.9 40.8 70 -0.1 31.9
15:50 1019 30.09 848 25.04 4.9 40.8 71 0 32
15:55 1019 30.09 848 25.04 4.9 40.8 71 0.1 32.2
16:00 1019 30.09 848 25.04 4.7 40.4 73 0.2 32.3
16:05 1019 30.09 848 25.04 4.5 40.2 73 0.1 32.1
16:10 1019 30.09 848 25.04 4.5 40.1 73 0 32.1
16:15 1019 30.09 848 25.04 4.5 40.1 73 0 32.1
16:20 1019 30.09 848 25.04 4.5 40 72 -0.1 31.8
16:25 1019 30.09 848 25.04 4.5 40.1 72 -0.1 31.8
16:30 1019 30.09 848 25.04 4.6 40.2 72 -0 31.9
16:35 1019 30.09 848 25.04 4.7 40.4 70 -0.3 31.4
16:40 1019 30.09 848 25.04 4.6 40.3 71 -0.2 31.6
16:45 1019 30.09 848 25.04 4.6 40.3 71 -0.2 31.6
16:50 1019 30.09 848 25.04 4.5 40.2 73 0 32.1
16:55 1019 30.09 848 25.04 4.5 40.2 73 0.1 32.1
17:00 1019 30.09 848 25.04 4.5 40 74 0.2 32.4
17:05 1019 30.09 848 25.04 4.3 39.8 75 0.3 32.5
17:10 1019 30.09 848 25.04 4.2 39.6 76 0.4 32.8
17:15 1019 30.09 848 25.04 4.2 39.5 78 0.7 33.3
17:20 1019 30.09 848 25.04 4.1 39.4 78 0.6 33.1
17:25 1019 30.09 849 25.07 4 39.2 78 0.6 33.1
17:30 1019 30.09 849 25.07 4 39.2 79 0.6 33.1
17:35 1019 30.09 849 25.07 4 39.1 78 0.4 32.7
17:40 1019 30.09 849 25.07 4 39.2 79 0.7 33.2
17:45 1019 30.09 849 25.07 4 39.2 77 0.4 32.6
17:50 1020 30.12 849 25.07 4 39.2 75 -0.1 31.9
17:55 1020 30.12 849 25.07 4 39.2 76 0.2 32.3
18:00 1020 30.12 849 25.07 4 39.3 76 0.1 32.2
18:05 1020 30.12 849 25.07 4.1 39.3 75 0 32
18:10 1020 30.12 849 25.07 4.1 39.4 75 -0 32
18:15 1020 30.12 849 25.07 4.1 39.4 74 -0.1 31.9
18:20 1020 30.12 849 25.07 4.2 39.5 74 -0 31.9
18:25 1020 30.12 849 25.07 4.1 39.4 74 -0.1 31.9
18:30 1020 30.12 849 25.07 4.1 39.4 75 0 32.1
18:35 1020 30.12 849 25.07 4.1 39.4 76 0.3 32.5
18:40 1020 30.12 849 25.07 4.1 39.4 76 0.3 32.6
18:45 1020 30.12 849 25.07 4.1 39.3 76 0.1 32.3
18:50 1020 30.12 849 25.07 4 39.3 77 0.3 32.5
18:55 1020 30.12 849 25.07 4 39.1 78 0.5 32.8
19:00 1020 30.12 849 25.07 3.9 39.1 77 0.3 32.5
19:05 1020 30.12 849 25.07 3.9 39 78 0.4 32.6
19:10 1020 30.12 849 25.07 3.8 38.9 77 0.2 32.3
19:15 1020 30.12 849 25.07 3.8 38.8 77 0.2 32.3
19:20 1020 30.12 849 25.07 3.7 38.7 78 0.2 32.3
19:25 1020 30.12 849 25.07 3.7 38.6 78 0.3 32.5
19:30 1020 30.12 849 25.07 3.6 38.5 78 0.2 32.3
19:35 1020 30.12 849 25.07 3.6 38.5 78 0.2 32.3
19:40 1020 30.12 849 25.07 3.6 38.4 79 0.2 32.4
19:45 1020 30.12 849 25.07 3.5 38.4 79 0.3 32.5
19:50 1020 30.12 850 25.1 3.5 38.3 79 0.2 32.3
19:55 1020 30.12 850 25.1 3.5 38.3 78 0.1 32.1
20:00 1020 30.12 850 25.1 3.5 38.3 78 -0.1 31.9
20:05 1020 30.12 850 25.1 3.5 38.3 78 -0 32
20:10 1021 30.15 850 25.1 3.5 38.3 79 0.1 32.2
20:15 1021 30.15 850 25.1 3.5 38.2 79 0.1 32.2
20:20 1021 30.15 850 25.1 3.5 38.2 78 0.1 32.1
20:25 1021 30.15 850 25.1 3.4 38.2 79 0.1 32.2
20:30 1021 30.15 850 25.1 3.4 38.2 79 0.1 32.2
20:35 1021 30.15 850 25.1 3.4 38.1 80 0.2 32.4
20:40 1021 30.15 850 25.1 3.4 38.1 78 -0 32
20:45 1021 30.15 850 25.1 3.4 38.1 78 -0.1 31.8
20:50 1021 30.15 850 25.1 3.4 38 78 -0.1 31.7
20:55 1021 30.15 850 25.1 3.3 37.9 79 -0.1 31.9
21:00 1021 30.15 850 25.1 3.2 37.8 79 -0.1 31.8
21:05 1021 30.15 850 25.1 3.3 37.9 78 -0.2 31.7
21:10 1021 30.15 850 25.1 3.3 37.9 79 -0.1 31.8
21:15 1021 30.15 850 25.1 3.2 37.8 78 -0.2 31.7
21:20 1021 30.15 850 25.1 3.2 37.8 78 -0.2 31.6
21:25 1021 30.15 850 25.1 3.2 37.8 78 -0.3 31.5
21:30 1021 30.15 850 25.1 3.2 37.8 78 -0.3 31.5
21:35 1021 30.15 850 25.1 3.2 37.7 77 -0.4 31.3
21:40 1021 30.15 850 25.1 3.2 37.7 77 -0.4 31.2
21:45 1021 30.15 850 25.1 3.2 37.8 77 -0.4 31.3
21:50 1021 30.15 850 25.1 3.2 37.7 78 -0.3 31.5
21:55 1021 30.15 850 25.1 3.2 37.7 78 -0.3 31.5
22:00 1021 30.15 850 25.1 3.1 37.6 78 -0.3 31.5
22:05 1021 30.15 850 25.1 3 37.5 79 -0.3 31.5
22:10 1021 30.15 850 25.1 3 37.4 80 -0.2 31.7
22:15 1021 30.15 850 25.1 2.9 37.2 80 -0.2 31.7
22:20 1021 30.15 850 25.1 2.8 37.1 81 -0.1 31.8
22:25 1021 30.15 850 25.1 2.8 37 80 -0.3 31.5
22:30 1021 30.15 850 25.1 2.8 37.1 81 -0.2 31.7
22:35 1021 30.15 850 25.1 2.8 37.1 81 -0.2 31.7
22:40 1021 30.15 850 25.1 2.8 37 80 -0.3 31.5
22:45 1021 30.15 850 25.1 2.8 37.1 79 -0.4 31.3
22:50 1021 30.15 850 25.1 2.9 37.2 79 -0.3 31.4
22:55 1021 30.15 850 25.1 2.9 37.2 79 -0.4 31.3
23:00 1021 30.15 851 25.13 2.9 37.1 80 -0.3 31.4
23:05 1021 30.15 850 25.1 2.8 37.1 79 -0.4 31.2
23:10 1021 30.15 850 25.1 2.8 37.1 79 -0.4 31.2
23:15 1021 30.15 850 25.1 2.8 37.1 79 -0.4 31.3
23:20 1021 30.15 850 25.1 2.8 37 79 -0.4 31.3
23:25 1021 30.15 850 25.1 2.8 37 79 -0.5 31.2
23:30 1021 30.15 850 25.1 2.8 37 80 -0.4 31.2
23:35 1021 30.15 850 25.1 2.7 36.8 81 -0.3 31.4
23:40 1021 30.15 850 25.1 2.6 36.8 81 -0.4 31.4
23:45 1021 30.15 850 25.1 2.6 36.7 80 -0.5 31.2
23:50 1021 30.15 850 25.1 2.6 36.8 80 -0.5 31.2
23:55 1021 30.15 850 25.1 2.6 36.7 80 -0.5 31.2
24:00 1021 30.15 850 25.1 2.6 36.7 81 -0.4 31.3